sensor_id;sensor_type;location;lat;lon;timestamp;P1;durP1;ratioP1;P2;durP2;ratioP2
4636;SDS011;2331;48.806;9.140;2023-11-25T00:01:59;3.40;;;1.67;;
4636;SDS011;2331;48.806;9.140;2023-11-25T00:04:26;3.75;;;1.50;;
4636;SDS011;2331;48.806;9.140;2023-11-25T00:06:52;5.45;;;1.65;;
4636;SDS011;2331;48.806;9.140;2023-11-25T00:09:20;6.32;;;1.98;;
4636;SDS011;2331;48.806;9.140;2023-11-25T00:11:47;7.57;;;2.08;;
4636;SDS011;2331;48.806;9.140;2023-11-25T00:14:15;2.70;;;1.33;;
4636;SDS011;2331;48.806;9.140;2023-11-25T00:16:42;5.80;;;1.80;;
4636;SDS011;2331;48.806;9.140;2023-11-25T00:19:09;5.65;;;1.60;;
4636;SDS011;2331;48.806;9.140;2023-11-25T00:21:36;2.50;;;1.60;;
4636;SDS011;2331;48.806;9.140;2023-11-25T00:24:02;8.43;;;1.80;;
4636;SDS011;2331;48.806;9.140;2023-11-25T00:26:29;7.10;;;1.65;;
4636;SDS011;2331;48.806;9.140;2023-11-25T00:28:57;5.03;;;1.60;;
4636;SDS011;2331;48.806;9.140;2023-11-25T00:31:25;5.05;;;1.80;;
4636;SDS011;2331;48.806;9.140;2023-11-25T00:33:52;4.07;;;1.40;;
4636;SDS011;2331;48.806;9.140;2023-11-25T00:36:18;8.13;;;1.55;;
4636;SDS011;2331;48.806;9.140;2023-11-25T00:38:46;4.90;;;1.70;;
4636;SDS011;2331;48.806;9.140;2023-11-25T00:41:12;4.47;;;1.50;;
4636;SDS011;2331;48.806;9.140;2023-11-25T00:43:39;6.82;;;1.75;;
4636;SDS011;2331;48.806;9.140;2023-11-25T00:46:06;3.65;;;1.70;;
4636;SDS011;2331;48.806;9.140;2023-11-25T00:48:34;4.55;;;1.67;;
4636;SDS011;2331;48.806;9.140;2023-11-25T00:51:01;7.13;;;1.65;;
4636;SDS011;2331;48.806;9.140;2023-11-25T00:53:28;7.68;;;1.60;;
4636;SDS011;2331;48.806;9.140;2023-11-25T00:55:54;2.35;;;1.63;;
4636;SDS011;2331;48.806;9.140;2023-11-25T00:58:21;3.90;;;1.40;;
4636;SDS011;2331;48.806;9.140;2023-11-25T01:00:48;4.45;;;1.80;;
4636;SDS011;2331;48.806;9.140;2023-11-25T01:03:15;4.30;;;1.58;;
4636;SDS011;2331;48.806;9.140;2023-11-25T01:05:43;4.30;;;1.63;;
4636;SDS011;2331;48.806;9.140;2023-11-25T01:08:10;6.30;;;1.65;;
4636;SDS011;2331;48.806;9.140;2023-11-25T01:10:37;3.67;;;1.27;;
4636;SDS011;2331;48.806;9.140;2023-11-25T01:13:05;4.55;;;2.05;;
4636;SDS011;2331;48.806;9.140;2023-11-25T01:15:31;4.47;;;1.35;;
4636;SDS011;2331;48.806;9.140;2023-11-25T01:17:58;4.85;;;1.60;;
4636;SDS011;2331;48.806;9.140;2023-11-25T01:20:25;3.33;;;1.30;;
4636;SDS011;2331;48.806;9.140;2023-11-25T01:22:53;3.58;;;1.45;;
4636;SDS011;2331;48.806;9.140;2023-11-25T01:25:20;4.25;;;1.80;;
4636;SDS011;2331;48.806;9.140;2023-11-25T01:27:47;6.13;;;1.30;;
4636;SDS011;2331;48.806;9.140;2023-11-25T01:30:13;6.45;;;1.17;;
4636;SDS011;2331;48.806;9.140;2023-11-25T01:32:40;9.63;;;2.33;;
4636;SDS011;2331;48.806;9.140;2023-11-25T01:35:07;4.93;;;1.67;;
4636;SDS011;2331;48.806;9.140;2023-11-25T01:37:34;6.07;;;2.03;;
4636;SDS011;2331;48.806;9.140;2023-11-25T01:40:02;4.20;;;1.50;;
4636;SDS011;2331;48.806;9.140;2023-11-25T01:42:31;8.63;;;2.30;;
4636;SDS011;2331;48.806;9.140;2023-11-25T01:44:58;6.38;;;1.40;;
4636;SDS011;2331;48.806;9.140;2023-11-25T01:47:24;3.85;;;1.45;;
4636;SDS011;2331;48.806;9.140;2023-11-25T01:49:51;6.03;;;1.52;;
4636;SDS011;2331;48.806;9.140;2023-11-25T01:52:18;7.47;;;1.60;;
4636;SDS011;2331;48.806;9.140;2023-11-25T01:54:45;5.45;;;2.03;;
4636;SDS011;2331;48.806;9.140;2023-11-25T01:57:13;5.75;;;1.80;;
4636;SDS011;2331;48.806;9.140;2023-11-25T01:59:46;7.05;;;1.55;;
4636;SDS011;2331;48.806;9.140;2023-11-25T02:02:15;3.80;;;1.42;;
4636;SDS011;2331;48.806;9.140;2023-11-25T02:04:45;4.70;;;1.73;;
4636;SDS011;2331;48.806;9.140;2023-11-25T02:07:12;4.60;;;1.70;;
4636;SDS011;2331;48.806;9.140;2023-11-25T02:09:40;1.90;;;1.27;;
4636;SDS011;2331;48.806;9.140;2023-11-25T02:12:06;4.97;;;1.60;;
4636;SDS011;2331;48.806;9.140;2023-11-25T02:14:34;6.03;;;1.75;;
4636;SDS011;2331;48.806;9.140;2023-11-25T02:17:02;4.43;;;1.75;;
4636;SDS011;2331;48.806;9.140;2023-11-25T02:19:30;3.60;;;1.60;;
4636;SDS011;2331;48.806;9.140;2023-11-25T02:21:57;3.22;;;1.40;;
4636;SDS011;2331;48.806;9.140;2023-11-25T02:24:26;9.23;;;1.50;;
4636;SDS011;2331;48.806;9.140;2023-11-25T02:26:58;5.10;;;2.03;;
4636;SDS011;2331;48.806;9.140;2023-11-25T02:29:25;4.35;;;1.88;;
4636;SDS011;2331;48.806;9.140;2023-11-25T02:31:52;6.22;;;1.73;;
4636;SDS011;2331;48.806;9.140;2023-11-25T02:34:19;6.22;;;1.55;;
4636;SDS011;2331;48.806;9.140;2023-11-25T02:36:46;6.20;;;1.67;;
4636;SDS011;2331;48.806;9.140;2023-11-25T02:39:13;3.10;;;1.40;;
4636;SDS011;2331;48.806;9.140;2023-11-25T02:41:46;5.30;;;1.90;;
4636;SDS011;2331;48.806;9.140;2023-11-25T02:44:13;6.05;;;1.70;;
4636;SDS011;2331;48.806;9.140;2023-11-25T02:46:42;6.57;;;1.33;;
4636;SDS011;2331;48.806;9.140;2023-11-25T02:49:09;6.68;;;2.00;;
4636;SDS011;2331;48.806;9.140;2023-11-25T02:51:36;7.95;;;2.08;;
4636;SDS011;2331;48.806;9.140;2023-11-25T02:54:03;3.13;;;1.67;;
4636;SDS011;2331;48.806;9.140;2023-11-25T02:56:30;4.55;;;1.70;;
4636;SDS011;2331;48.806;9.140;2023-11-25T02:58:59;4.65;;;1.63;;
4636;SDS011;2331;48.806;9.140;2023-11-25T03:01:26;5.38;;;1.80;;
4636;SDS011;2331;48.806;9.140;2023-11-25T03:03:55;4.13;;;1.63;;
4636;SDS011;2331;48.806;9.140;2023-11-25T03:06:26;3.80;;;1.92;;
4636;SDS011;2331;48.806;9.140;2023-11-25T03:08:56;9.23;;;2.17;;
4636;SDS011;2331;48.806;9.140;2023-11-25T03:11:22;7.55;;;1.95;;
4636;SDS011;2331;48.806;9.140;2023-11-25T03:13:51;8.18;;;2.42;;
4636;SDS011;2331;48.806;9.140;2023-11-25T03:16:19;8.40;;;2.30;;
4636;SDS011;2331;48.806;9.140;2023-11-25T03:18:49;5.50;;;1.60;;
4636;SDS011;2331;48.806;9.140;2023-11-25T03:21:17;6.07;;;2.05;;
4636;SDS011;2331;48.806;9.140;2023-11-25T03:23:45;5.65;;;1.85;;
4636;SDS011;2331;48.806;9.140;2023-11-25T03:26:12;4.57;;;1.77;;
4636;SDS011;2331;48.806;9.140;2023-11-25T03:28:38;4.30;;;1.95;;
4636;SDS011;2331;48.806;9.140;2023-11-25T03:31:05;10.23;;;2.00;;
4636;SDS011;2331;48.806;9.140;2023-11-25T03:33:34;8.93;;;2.45;;
4636;SDS011;2331;48.806;9.140;2023-11-25T03:36:02;6.55;;;2.25;;
4636;SDS011;2331;48.806;9.140;2023-11-25T03:38:29;5.70;;;2.05;;
4636;SDS011;2331;48.806;9.140;2023-11-25T03:40:55;5.70;;;2.00;;
4636;SDS011;2331;48.806;9.140;2023-11-25T03:43:22;8.73;;;2.15;;
4636;SDS011;2331;48.806;9.140;2023-11-25T03:45:49;6.35;;;2.00;;
4636;SDS011;2331;48.806;9.140;2023-11-25T03:48:17;4.75;;;2.13;;
4636;SDS011;2331;48.806;9.140;2023-11-25T03:50:45;10.43;;;2.42;;
4636;SDS011;2331;48.806;9.140;2023-11-25T03:53:12;5.15;;;2.45;;
4636;SDS011;2331;48.806;9.140;2023-11-25T03:55:39;9.35;;;2.30;;
4636;SDS011;2331;48.806;9.140;2023-11-25T03:58:06;6.97;;;2.10;;
4636;SDS011;2331;48.806;9.140;2023-11-25T04:00:33;5.90;;;1.85;;
4636;SDS011;2331;48.806;9.140;2023-11-25T04:02:59;5.80;;;2.30;;
4636;SDS011;2331;48.806;9.140;2023-11-25T04:05:26;5.95;;;2.20;;
4636;SDS011;2331;48.806;9.140;2023-11-25T04:07:54;3.67;;;1.83;;
4636;SDS011;2331;48.806;9.140;2023-11-25T04:10:21;3.53;;;1.80;;
4636;SDS011;2331;48.806;9.140;2023-11-25T04:12:49;7.75;;;1.80;;
4636;SDS011;2331;48.806;9.140;2023-11-25T04:15:18;7.40;;;2.17;;
4636;SDS011;2331;48.806;9.140;2023-11-25T04:17:45;4.43;;;1.75;;
4636;SDS011;2331;48.806;9.140;2023-11-25T04:20:12;7.00;;;1.98;;
4636;SDS011;2331;48.806;9.140;2023-11-25T04:22:40;9.43;;;2.05;;
4636;SDS011;2331;48.806;9.140;2023-11-25T04:25:09;5.45;;;2.08;;
4636;SDS011;2331;48.806;9.140;2023-11-25T04:27:38;6.00;;;1.70;;
4636;SDS011;2331;48.806;9.140;2023-11-25T04:30:06;6.93;;;1.90;;
4636;SDS011;2331;48.806;9.140;2023-11-25T04:32:34;5.80;;;1.77;;
4636;SDS011;2331;48.806;9.140;2023-11-25T04:35:01;6.35;;;2.17;;
4636;SDS011;2331;48.806;9.140;2023-11-25T04:37:30;6.10;;;1.80;;
4636;SDS011;2331;48.806;9.140;2023-11-25T04:39:56;12.02;;;2.08;;
4636;SDS011;2331;48.806;9.140;2023-11-25T04:42:25;4.03;;;1.70;;
4636;SDS011;2331;48.806;9.140;2023-11-25T04:44:51;7.38;;;2.05;;
4636;SDS011;2331;48.806;9.140;2023-11-25T04:47:18;4.57;;;1.60;;
4636;SDS011;2331;48.806;9.140;2023-11-25T04:49:45;5.50;;;1.90;;
4636;SDS011;2331;48.806;9.140;2023-11-25T04:52:12;6.95;;;2.35;;
4636;SDS011;2331;48.806;9.140;2023-11-25T04:54:39;5.88;;;1.63;;
4636;SDS011;2331;48.806;9.140;2023-11-25T04:57:06;5.47;;;1.80;;
4636;SDS011;2331;48.806;9.140;2023-11-25T04:59:35;7.35;;;2.00;;
4636;SDS011;2331;48.806;9.140;2023-11-25T05:02:02;4.93;;;1.60;;
4636;SDS011;2331;48.806;9.140;2023-11-25T05:04:30;3.30;;;1.67;;
4636;SDS011;2331;48.806;9.140;2023-11-25T05:06:56;6.47;;;1.83;;
4636;SDS011;2331;48.806;9.140;2023-11-25T05:09:23;6.40;;;2.30;;
4636;SDS011;2331;48.806;9.140;2023-11-25T05:11:51;7.85;;;1.60;;
4636;SDS011;2331;48.806;9.140;2023-11-25T05:14:18;4.68;;;1.70;;
4636;SDS011;2331;48.806;9.140;2023-11-25T05:16:46;4.97;;;1.90;;
4636;SDS011;2331;48.806;9.140;2023-11-25T05:19:13;4.20;;;1.80;;
4636;SDS011;2331;48.806;9.140;2023-11-25T05:21:40;8.48;;;1.92;;
4636;SDS011;2331;48.806;9.140;2023-11-25T05:24:07;4.85;;;1.70;;
4636;SDS011;2331;48.806;9.140;2023-11-25T05:26:34;3.75;;;1.92;;
4636;SDS011;2331;48.806;9.140;2023-11-25T05:29:01;7.65;;;1.65;;
4636;SDS011;2331;48.806;9.140;2023-11-25T05:31:28;6.78;;;2.03;;
4636;SDS011;2331;48.806;9.140;2023-11-25T05:33:59;8.30;;;2.00;;
4636;SDS011;2331;48.806;9.140;2023-11-25T05:36:28;6.25;;;2.00;;
4636;SDS011;2331;48.806;9.140;2023-11-25T05:38:55;4.55;;;1.85;;
4636;SDS011;2331;48.806;9.140;2023-11-25T05:41:22;3.63;;;1.83;;
4636;SDS011;2331;48.806;9.140;2023-11-25T05:43:50;5.80;;;1.80;;
4636;SDS011;2331;48.806;9.140;2023-11-25T05:46:20;5.80;;;1.65;;
4636;SDS011;2331;48.806;9.140;2023-11-25T05:48:47;7.32;;;1.73;;
4636;SDS011;2331;48.806;9.140;2023-11-25T05:51:16;5.75;;;1.80;;
4636;SDS011;2331;48.806;9.140;2023-11-25T05:53:43;6.32;;;1.73;;
4636;SDS011;2331;48.806;9.140;2023-11-25T05:56:10;3.85;;;1.75;;
4636;SDS011;2331;48.806;9.140;2023-11-25T05:58:37;4.78;;;1.38;;
4636;SDS011;2331;48.806;9.140;2023-11-25T06:01:04;3.75;;;1.77;;
4636;SDS011;2331;48.806;9.140;2023-11-25T06:03:31;3.67;;;1.80;;
4636;SDS011;2331;48.806;9.140;2023-11-25T06:05:59;6.40;;;1.85;;
4636;SDS011;2331;48.806;9.140;2023-11-25T06:08:27;6.97;;;1.98;;
4636;SDS011;2331;48.806;9.140;2023-11-25T06:10:55;9.73;;;1.80;;
4636;SDS011;2331;48.806;9.140;2023-11-25T06:13:23;5.43;;;1.90;;
4636;SDS011;2331;48.806;9.140;2023-11-25T06:15:49;6.82;;;1.70;;
4636;SDS011;2331;48.806;9.140;2023-11-25T06:18:17;4.28;;;1.95;;
4636;SDS011;2331;48.806;9.140;2023-11-25T06:20:45;6.28;;;1.50;;
4636;SDS011;2331;48.806;9.140;2023-11-25T06:23:12;8.98;;;2.30;;
4636;SDS011;2331;48.806;9.140;2023-11-25T06:25:40;4.68;;;1.60;;
4636;SDS011;2331;48.806;9.140;2023-11-25T06:28:09;7.03;;;2.10;;
4636;SDS011;2331;48.806;9.140;2023-11-25T06:30:38;7.35;;;2.40;;
4636;SDS011;2331;48.806;9.140;2023-11-25T06:33:05;4.68;;;1.52;;
4636;SDS011;2331;48.806;9.140;2023-11-25T06:35:32;7.75;;;1.85;;
4636;SDS011;2331;48.806;9.140;2023-11-25T06:38:01;3.67;;;1.63;;
4636;SDS011;2331;48.806;9.140;2023-11-25T06:40:29;5.03;;;1.90;;
4636;SDS011;2331;48.806;9.140;2023-11-25T06:42:57;4.40;;;1.85;;
4636;SDS011;2331;48.806;9.140;2023-11-25T06:45:24;7.50;;;1.83;;
4636;SDS011;2331;48.806;9.140;2023-11-25T06:47:51;7.75;;;1.90;;
4636;SDS011;2331;48.806;9.140;2023-11-25T06:50:19;8.10;;;2.20;;
4636;SDS011;2331;48.806;9.140;2023-11-25T06:52:47;9.77;;;2.60;;
4636;SDS011;2331;48.806;9.140;2023-11-25T06:55:14;3.20;;;1.92;;
4636;SDS011;2331;48.806;9.140;2023-11-25T06:57:41;3.20;;;1.52;;
4636;SDS011;2331;48.806;9.140;2023-11-25T07:00:10;5.85;;;2.20;;
4636;SDS011;2331;48.806;9.140;2023-11-25T07:02:38;6.68;;;1.95;;
4636;SDS011;2331;48.806;9.140;2023-11-25T07:05:06;8.98;;;2.35;;
4636;SDS011;2331;48.806;9.140;2023-11-25T07:07:32;6.75;;;1.92;;
4636;SDS011;2331;48.806;9.140;2023-11-25T07:09:59;4.80;;;1.98;;
4636;SDS011;2331;48.806;9.140;2023-11-25T07:12:26;6.32;;;1.90;;
4636;SDS011;2331;48.806;9.140;2023-11-25T07:14:55;4.25;;;1.70;;
4636;SDS011;2331;48.806;9.140;2023-11-25T07:17:23;3.75;;;1.80;;
4636;SDS011;2331;48.806;9.140;2023-11-25T07:19:50;6.45;;;1.65;;
4636;SDS011;2331;48.806;9.140;2023-11-25T07:22:17;6.35;;;1.40;;
4636;SDS011;2331;48.806;9.140;2023-11-25T07:24:43;8.20;;;2.30;;
4636;SDS011;2331;48.806;9.140;2023-11-25T07:27:11;4.93;;;2.17;;
4636;SDS011;2331;48.806;9.140;2023-11-25T07:29:43;2.90;;;1.55;;
4636;SDS011;2331;48.806;9.140;2023-11-25T07:32:10;2.35;;;1.58;;
4636;SDS011;2331;48.806;9.140;2023-11-25T07:34:39;8.70;;;2.20;;
4636;SDS011;2331;48.806;9.140;2023-11-25T07:37:06;6.85;;;1.85;;
4636;SDS011;2331;48.806;9.140;2023-11-25T07:39:33;6.50;;;1.85;;
4636;SDS011;2331;48.806;9.140;2023-11-25T07:42:00;12.15;;;2.00;;
4636;SDS011;2331;48.806;9.140;2023-11-25T07:44:27;6.45;;;2.08;;
4636;SDS011;2331;48.806;9.140;2023-11-25T07:46:55;5.10;;;1.58;;
4636;SDS011;2331;48.806;9.140;2023-11-25T07:49:22;4.85;;;2.08;;
4636;SDS011;2331;48.806;9.140;2023-11-25T07:51:50;6.75;;;2.10;;
4636;SDS011;2331;48.806;9.140;2023-11-25T07:54:17;6.47;;;1.70;;
4636;SDS011;2331;48.806;9.140;2023-11-25T07:56:44;4.28;;;1.73;;
4636;SDS011;2331;48.806;9.140;2023-11-25T07:59:12;4.80;;;2.00;;
4636;SDS011;2331;48.806;9.140;2023-11-25T08:01:39;3.90;;;1.60;;
4636;SDS011;2331;48.806;9.140;2023-11-25T08:04:06;5.95;;;1.98;;
4636;SDS011;2331;48.806;9.140;2023-11-25T08:06:32;6.28;;;1.65;;
4636;SDS011;2331;48.806;9.140;2023-11-25T08:09:00;9.20;;;2.30;;
4636;SDS011;2331;48.806;9.140;2023-11-25T08:11:28;3.40;;;1.58;;
4636;SDS011;2331;48.806;9.140;2023-11-25T08:13:57;5.38;;;2.38;;
4636;SDS011;2331;48.806;9.140;2023-11-25T08:16:24;8.45;;;1.80;;
4636;SDS011;2331;48.806;9.140;2023-11-25T08:18:50;5.65;;;2.00;;
4636;SDS011;2331;48.806;9.140;2023-11-25T08:21:18;6.35;;;2.38;;
4636;SDS011;2331;48.806;9.140;2023-11-25T08:23:44;5.55;;;1.70;;
4636;SDS011;2331;48.806;9.140;2023-11-25T08:26:19;7.60;;;2.35;;
4636;SDS011;2331;48.806;9.140;2023-11-25T08:28:47;11.07;;;2.10;;
4636;SDS011;2331;48.806;9.140;2023-11-25T08:31:15;4.20;;;2.30;;
4636;SDS011;2331;48.806;9.140;2023-11-25T08:33:42;7.13;;;2.08;;
4636;SDS011;2331;48.806;9.140;2023-11-25T08:36:09;6.40;;;2.00;;
4636;SDS011;2331;48.806;9.140;2023-11-25T08:38:36;6.43;;;2.22;;
4636;SDS011;2331;48.806;9.140;2023-11-25T08:41:04;5.90;;;1.88;;
4636;SDS011;2331;48.806;9.140;2023-11-25T08:43:33;6.28;;;2.30;;
4636;SDS011;2331;48.806;9.140;2023-11-25T08:46:00;7.05;;;2.10;;
4636;SDS011;2331;48.806;9.140;2023-11-25T08:48:26;5.47;;;2.38;;
4636;SDS011;2331;48.806;9.140;2023-11-25T08:50:55;6.55;;;2.00;;
4636;SDS011;2331;48.806;9.140;2023-11-25T08:53:21;8.65;;;1.77;;
4636;SDS011;2331;48.806;9.140;2023-11-25T08:55:49;5.65;;;2.13;;
4636;SDS011;2331;48.806;9.140;2023-11-25T08:58:17;7.05;;;1.70;;
4636;SDS011;2331;48.806;9.140;2023-11-25T09:00:45;7.10;;;1.77;;
4636;SDS011;2331;48.806;9.140;2023-11-25T09:03:16;8.30;;;2.30;;
4636;SDS011;2331;48.806;9.140;2023-11-25T09:05:45;7.65;;;2.58;;
4636;SDS011;2331;48.806;9.140;2023-11-25T09:08:12;9.02;;;2.50;;
4636;SDS011;2331;48.806;9.140;2023-11-25T09:10:39;9.32;;;2.45;;
4636;SDS011;2331;48.806;9.140;2023-11-25T09:13:06;9.88;;;2.40;;
4636;SDS011;2331;48.806;9.140;2023-11-25T09:15:33;9.45;;;2.70;;
4636;SDS011;2331;48.806;9.140;2023-11-25T09:18:01;9.77;;;2.72;;
4636;SDS011;2331;48.806;9.140;2023-11-25T09:20:28;9.82;;;3.05;;
4636;SDS011;2331;48.806;9.140;2023-11-25T09:22:55;5.60;;;2.10;;
4636;SDS011;2331;48.806;9.140;2023-11-25T09:25:21;10.55;;;2.50;;
4636;SDS011;2331;48.806;9.140;2023-11-25T09:27:49;12.55;;;3.10;;
4636;SDS011;2331;48.806;9.140;2023-11-25T09:30:17;11.93;;;3.00;;
4636;SDS011;2331;48.806;9.140;2023-11-25T09:32:44;6.43;;;2.38;;
4636;SDS011;2331;48.806;9.140;2023-11-25T09:35:12;8.07;;;2.72;;
4636;SDS011;2331;48.806;9.140;2023-11-25T09:37:40;20.17;;;3.25;;
4636;SDS011;2331;48.806;9.140;2023-11-25T09:40:08;13.40;;;3.58;;
4636;SDS011;2331;48.806;9.140;2023-11-25T09:42:39;8.73;;;3.10;;
4636;SDS011;2331;48.806;9.140;2023-11-25T09:45:06;9.40;;;2.70;;
4636;SDS011;2331;48.806;9.140;2023-11-25T09:47:34;17.98;;;2.78;;
4636;SDS011;2331;48.806;9.140;2023-11-25T09:50:03;14.57;;;2.88;;
4636;SDS011;2331;48.806;9.140;2023-11-25T09:52:32;13.27;;;3.15;;
4636;SDS011;2331;48.806;9.140;2023-11-25T09:55:06;11.93;;;3.25;;
4636;SDS011;2331;48.806;9.140;2023-11-25T09:57:34;8.57;;;2.80;;
4636;SDS011;2331;48.806;9.140;2023-11-25T10:00:03;12.52;;;2.70;;
4636;SDS011;2331;48.806;9.140;2023-11-25T10:02:31;10.20;;;2.40;;
4636;SDS011;2331;48.806;9.140;2023-11-25T10:04:59;12.18;;;2.78;;
4636;SDS011;2331;48.806;9.140;2023-11-25T10:07:29;4.88;;;2.08;;
4636;SDS011;2331;48.806;9.140;2023-11-25T10:09:57;8.48;;;2.42;;
4636;SDS011;2331;48.806;9.140;2023-11-25T10:12:24;11.32;;;2.83;;
4636;SDS011;2331;48.806;9.140;2023-11-25T10:14:51;9.48;;;2.60;;
4636;SDS011;2331;48.806;9.140;2023-11-25T10:17:18;12.18;;;3.15;;
4636;SDS011;2331;48.806;9.140;2023-11-25T10:19:46;13.45;;;3.65;;
4636;SDS011;2331;48.806;9.140;2023-11-25T10:22:14;12.50;;;2.95;;
4636;SDS011;2331;48.806;9.140;2023-11-25T10:24:44;9.60;;;2.50;;
4636;SDS011;2331;48.806;9.140;2023-11-25T10:27:14;10.95;;;2.63;;
4636;SDS011;2331;48.806;9.140;2023-11-25T10:29:41;14.57;;;3.50;;
4636;SDS011;2331;48.806;9.140;2023-11-25T10:32:08;12.32;;;3.17;;
4636;SDS011;2331;48.806;9.140;2023-11-25T10:34:36;10.57;;;2.53;;
4636;SDS011;2331;48.806;9.140;2023-11-25T10:37:03;9.10;;;2.88;;
4636;SDS011;2331;48.806;9.140;2023-11-25T10:39:33;8.75;;;2.80;;
4636;SDS011;2331;48.806;9.140;2023-11-25T10:42:03;10.38;;;2.95;;
4636;SDS011;2331;48.806;9.140;2023-11-25T10:44:32;10.30;;;2.65;;
4636;SDS011;2331;48.806;9.140;2023-11-25T10:46:59;14.95;;;3.03;;
4636;SDS011;2331;48.806;9.140;2023-11-25T10:49:27;16.70;;;3.60;;
4636;SDS011;2331;48.806;9.140;2023-11-25T10:51:58;12.32;;;2.97;;
4636;SDS011;2331;48.806;9.140;2023-11-25T10:54:29;7.45;;;2.63;;
4636;SDS011;2331;48.806;9.140;2023-11-25T10:56:58;9.98;;;2.90;;
4636;SDS011;2331;48.806;9.140;2023-11-25T10:59:31;8.98;;;2.67;;
4636;SDS011;2331;48.806;9.140;2023-11-25T11:01:59;9.95;;;2.80;;
4636;SDS011;2331;48.806;9.140;2023-11-25T11:04:32;9.68;;;2.60;;
4636;SDS011;2331;48.806;9.140;2023-11-25T11:07:07;13.80;;;2.95;;
4636;SDS011;2331;48.806;9.140;2023-11-25T11:09:40;16.90;;;3.10;;
4636;SDS011;2331;48.806;9.140;2023-11-25T11:12:10;11.00;;;2.80;;
4636;SDS011;2331;48.806;9.140;2023-11-25T11:14:46;12.05;;;2.90;;
4636;SDS011;2331;48.806;9.140;2023-11-25T11:17:20;21.50;;;7.05;;
4636;SDS011;2331;48.806;9.140;2023-11-25T11:19:54;16.17;;;5.05;;
4636;SDS011;2331;48.806;9.140;2023-11-25T11:22:25;11.88;;;3.50;;
4636;SDS011;2331;48.806;9.140;2023-11-25T11:24:58;9.02;;;2.80;;
4636;SDS011;2331;48.806;9.140;2023-11-25T11:27:34;9.35;;;2.50;;
4636;SDS011;2331;48.806;9.140;2023-11-25T11:30:10;11.98;;;3.15;;
4636;SDS011;2331;48.806;9.140;2023-11-25T11:32:45;8.38;;;2.63;;
4636;SDS011;2331;48.806;9.140;2023-11-25T11:35:13;10.75;;;2.60;;
4636;SDS011;2331;48.806;9.140;2023-11-25T11:37:46;10.15;;;2.80;;
4636;SDS011;2331;48.806;9.140;2023-11-25T11:40:13;14.05;;;2.75;;
4636;SDS011;2331;48.806;9.140;2023-11-25T11:42:40;12.30;;;2.58;;
4636;SDS011;2331;48.806;9.140;2023-11-25T11:45:13;15.80;;;2.40;;
4636;SDS011;2331;48.806;9.140;2023-11-25T11:47:52;9.32;;;2.58;;
4636;SDS011;2331;48.806;9.140;2023-11-25T11:50:20;7.35;;;2.20;;
4636;SDS011;2331;48.806;9.140;2023-11-25T11:53:11;11.63;;;2.90;;
4636;SDS011;2331;48.806;9.140;2023-11-25T11:55:42;8.65;;;3.08;;
4636;SDS011;2331;48.806;9.140;2023-11-25T11:58:15;9.48;;;2.65;;
4636;SDS011;2331;48.806;9.140;2023-11-25T12:00:47;8.88;;;2.63;;
4636;SDS011;2331;48.806;9.140;2023-11-25T12:03:18;10.48;;;2.88;;
4636;SDS011;2331;48.806;9.140;2023-11-25T12:05:45;12.20;;;2.20;;
4636;SDS011;2331;48.806;9.140;2023-11-25T12:08:11;8.37;;;2.60;;
4636;SDS011;2331;48.806;9.140;2023-11-25T12:10:38;7.03;;;1.80;;
4636;SDS011;2331;48.806;9.140;2023-11-25T12:13:05;6.03;;;1.80;;
4636;SDS011;2331;48.806;9.140;2023-11-25T12:15:32;7.88;;;2.42;;
4636;SDS011;2331;48.806;9.140;2023-11-25T12:18:01;5.80;;;2.22;;
4636;SDS011;2331;48.806;9.140;2023-11-25T12:20:28;4.78;;;2.00;;
4636;SDS011;2331;48.806;9.140;2023-11-25T12:22:56;8.23;;;2.30;;
4636;SDS011;2331;48.806;9.140;2023-11-25T12:25:27;9.75;;;2.20;;
4636;SDS011;2331;48.806;9.140;2023-11-25T12:27:58;5.15;;;1.95;;
4636;SDS011;2331;48.806;9.140;2023-11-25T12:30:31;6.85;;;1.88;;
4636;SDS011;2331;48.806;9.140;2023-11-25T12:33:04;5.85;;;1.92;;
4636;SDS011;2331;48.806;9.140;2023-11-25T12:35:32;5.82;;;1.73;;
4636;SDS011;2331;48.806;9.140;2023-11-25T12:37:59;7.05;;;2.00;;
4636;SDS011;2331;48.806;9.140;2023-11-25T12:40:26;9.00;;;2.15;;
4636;SDS011;2331;48.806;9.140;2023-11-25T12:42:53;13.63;;;1.95;;
4636;SDS011;2331;48.806;9.140;2023-11-25T12:45:33;8.20;;;1.88;;
4636;SDS011;2331;48.806;9.140;2023-11-25T12:48:03;7.00;;;1.88;;
4636;SDS011;2331;48.806;9.140;2023-11-25T12:50:31;4.90;;;1.77;;
4636;SDS011;2331;48.806;9.140;2023-11-25T12:53:02;3.85;;;1.60;;
4636;SDS011;2331;48.806;9.140;2023-11-25T12:55:37;5.38;;;1.90;;
4636;SDS011;2331;48.806;9.140;2023-11-25T12:58:05;3.58;;;1.55;;
4636;SDS011;2331;48.806;9.140;2023-11-25T13:00:33;4.78;;;1.55;;
4636;SDS011;2331;48.806;9.140;2023-11-25T13:03:02;3.58;;;1.45;;
4636;SDS011;2331;48.806;9.140;2023-11-25T13:05:30;5.30;;;1.80;;
4636;SDS011;2331;48.806;9.140;2023-11-25T13:07:57;7.78;;;2.20;;
4636;SDS011;2331;48.806;9.140;2023-11-25T13:10:24;13.50;;;2.10;;
4636;SDS011;2331;48.806;9.140;2023-11-25T13:12:51;5.68;;;1.90;;
4636;SDS011;2331;48.806;9.140;2023-11-25T13:15:18;5.00;;;1.67;;
4636;SDS011;2331;48.806;9.140;2023-11-25T13:17:46;7.00;;;2.03;;
4636;SDS011;2331;48.806;9.140;2023-11-25T13:20:14;6.85;;;1.80;;
4636;SDS011;2331;48.806;9.140;2023-11-25T13:22:41;7.88;;;2.15;;
4636;SDS011;2331;48.806;9.140;2023-11-25T13:25:09;7.50;;;2.30;;
4636;SDS011;2331;48.806;9.140;2023-11-25T13:27:37;8.55;;;2.08;;
4636;SDS011;2331;48.806;9.140;2023-11-25T13:30:05;9.25;;;2.42;;
4636;SDS011;2331;48.806;9.140;2023-11-25T13:32:32;6.38;;;1.55;;
4636;SDS011;2331;48.806;9.140;2023-11-25T13:34:59;6.57;;;1.90;;
4636;SDS011;2331;48.806;9.140;2023-11-25T13:37:27;5.88;;;1.60;;
4636;SDS011;2331;48.806;9.140;2023-11-25T13:39:56;7.47;;;2.42;;
4636;SDS011;2331;48.806;9.140;2023-11-25T13:42:24;4.13;;;1.50;;
4636;SDS011;2331;48.806;9.140;2023-11-25T13:44:51;5.88;;;1.88;;
4636;SDS011;2331;48.806;9.140;2023-11-25T13:47:19;4.97;;;1.80;;
4636;SDS011;2331;48.806;9.140;2023-11-25T13:49:46;6.05;;;1.80;;
4636;SDS011;2331;48.806;9.140;2023-11-25T13:52:13;7.25;;;2.75;;
4636;SDS011;2331;48.806;9.140;2023-11-25T13:54:41;5.60;;;1.65;;
4636;SDS011;2331;48.806;9.140;2023-11-25T13:57:08;4.22;;;1.92;;
4636;SDS011;2331;48.806;9.140;2023-11-25T13:59:35;4.55;;;2.00;;
4636;SDS011;2331;48.806;9.140;2023-11-25T14:02:02;3.70;;;1.85;;
4636;SDS011;2331;48.806;9.140;2023-11-25T14:04:29;8.60;;;3.15;;
4636;SDS011;2331;48.806;9.140;2023-11-25T14:06:57;5.63;;;1.98;;
4636;SDS011;2331;48.806;9.140;2023-11-25T14:09:24;5.20;;;2.00;;
4636;SDS011;2331;48.806;9.140;2023-11-25T14:11:53;5.40;;;2.17;;
4636;SDS011;2331;48.806;9.140;2023-11-25T14:14:19;4.32;;;2.00;;
4636;SDS011;2331;48.806;9.140;2023-11-25T14:16:46;7.07;;;2.47;;
4636;SDS011;2331;48.806;9.140;2023-11-25T14:19:13;3.63;;;1.83;;
4636;SDS011;2331;48.806;9.140;2023-11-25T14:21:41;4.65;;;2.33;;
4636;SDS011;2331;48.806;9.140;2023-11-25T14:24:08;7.47;;;2.35;;
4636;SDS011;2331;48.806;9.140;2023-11-25T14:26:35;7.03;;;2.28;;
4636;SDS011;2331;48.806;9.140;2023-11-25T14:29:04;4.55;;;2.35;;
4636;SDS011;2331;48.806;9.140;2023-11-25T14:31:30;4.28;;;2.10;;
4636;SDS011;2331;48.806;9.140;2023-11-25T14:33:57;6.13;;;2.40;;
4636;SDS011;2331;48.806;9.140;2023-11-25T14:36:24;5.82;;;2.08;;
4636;SDS011;2331;48.806;9.140;2023-11-25T14:38:51;8.85;;;2.60;;
4636;SDS011;2331;48.806;9.140;2023-11-25T14:41:19;8.20;;;2.40;;
4636;SDS011;2331;48.806;9.140;2023-11-25T14:43:47;5.15;;;2.42;;
4636;SDS011;2331;48.806;9.140;2023-11-25T14:46:15;6.50;;;2.42;;
4636;SDS011;2331;48.806;9.140;2023-11-25T14:48:42;8.85;;;2.53;;
4636;SDS011;2331;48.806;9.140;2023-11-25T14:51:09;6.30;;;2.60;;
4636;SDS011;2331;48.806;9.140;2023-11-25T14:53:36;6.40;;;2.40;;
4636;SDS011;2331;48.806;9.140;2023-11-25T14:56:04;4.85;;;2.10;;
4636;SDS011;2331;48.806;9.140;2023-11-25T14:58:32;6.97;;;2.05;;
4636;SDS011;2331;48.806;9.140;2023-11-25T15:00:59;7.13;;;2.50;;
4636;SDS011;2331;48.806;9.140;2023-11-25T15:03:27;6.25;;;2.28;;
4636;SDS011;2331;48.806;9.140;2023-11-25T15:05:56;8.35;;;2.30;;
4636;SDS011;2331;48.806;9.140;2023-11-25T15:08:23;3.95;;;1.92;;
4636;SDS011;2331;48.806;9.140;2023-11-25T15:10:50;5.28;;;1.73;;
4636;SDS011;2331;48.806;9.140;2023-11-25T15:13:17;4.45;;;1.50;;
4636;SDS011;2331;48.806;9.140;2023-11-25T15:15:44;2.97;;;1.70;;
4636;SDS011;2331;48.806;9.140;2023-11-25T15:18:15;5.30;;;1.73;;